Time;durP1;ratioP1;P1;durP2;ratioP2;P2;SDS_P1;SDS_P2;PMS_P1;PMS_P2;Temp;Humidity;BMP_temperature;BMP_pressure;BME280_temperature;BME280_humidity;BME280_pressure;Samples;Min_cycle;Max_cycle;Signal;HPM_P1;HPM_P2
2021/06/16 00:01:48;;;;;;;7.70;1.85;;;;;;;;;;3595369;39;20030;-65
2021/06/16 00:04:14;;;;;;;4.85;1.70;;;;;;;;;;3598344;39;20034;-64
2021/06/16 00:06:40;;;;;;;5.53;1.83;;;;;;;;;;3594608;39;20035;-65
2021/06/16 00:09:07;;;;;;;5.63;1.75;;;15.70;99.90;;;;;;3590569;39;20797;-65
2021/06/16 00:11:33;;;;;;;10.68;2.13;;;16.20;99.90;;;;;;3595242;39;20043;-65
2021/06/16 00:13:59;;;;;;;5.53;1.70;;;;;;;;;;3593010;39;20028;-65
2021/06/16 00:16:26;;;;;;;9.63;1.85;;;15.50;99.90;;;;;;3591346;39;20149;-65
2021/06/16 00:18:52;;;;;;;4.20;1.70;;;;;;;;;;3594565;39;20036;-65
2021/06/16 00:21:20;;;;;;;5.13;1.80;;;;;;;;;;3598023;39;20596;-65
2021/06/16 00:23:46;;;;;;;6.90;1.95;;;15.30;99.90;;;;;;3596023;39;20032;-65
2021/06/16 00:26:13;;;;;;;3.63;1.25;;;;;;;;;;3591719;39;20047;-65
2021/06/16 00:28:39;;;;;;;3.33;1.60;;;;;;;;;;3590716;39;20031;-65
2021/06/16 00:31:05;;;;;;;9.40;2.05;;;;;;;;;;3593988;39;20035;-65
2021/06/16 00:33:31;;;;;;;3.38;1.60;;;;;;;;;;3594907;39;20058;-65
2021/06/16 00:35:58;;;;;;;5.00;1.65;;;;;;;;;;3592915;39;20124;-65
2021/06/16 00:38:24;;;;;;;3.78;1.40;;;;;;;;;;3586437;39;20043;-65
2021/06/16 00:40:51;;;;;;;5.70;1.70;;;;;;;;;;3597387;39;20036;-65
2021/06/16 00:43:17;;;;;;;6.40;2.00;;;;;;;;;;3595677;39;20044;-65
2021/06/16 00:45:43;;;;;;;8.38;1.63;;;;;;;;;;3597870;39;20039;-65
2021/06/16 00:48:09;;;;;;;4.93;1.90;;;;;;;;;;3593268;39;20149;-65
2021/06/16 00:50:37;;;;;;;8.35;1.60;;;15.10;99.90;;;;;;3596595;39;20126;-65
2021/06/16 00:53:06;;;;;;;12.25;1.92;;;15.10;99.90;;;;;;3599332;39;20069;-65
2021/06/16 00:55:37;;;;;;;4.63;1.88;;;15.10;99.90;;;;;;3594749;39;20025;-65
2021/06/16 00:58:03;;;;;;;4.82;1.50;;;;;;;;;;3599408;39;20040;-65
2021/06/16 01:00:35;;;;;;;8.10;2.08;;;15.10;99.90;;;;;;3593346;39;20132;-65
2021/06/16 01:03:03;;;;;;;6.13;1.50;;;15.00;99.90;;;;;;3597174;39;20028;-65
2021/06/16 01:05:33;;;;;;;7.68;1.73;;;;;;;;;;3593398;39;20036;-65
2021/06/16 01:08:02;;;;;;;6.78;1.73;;;14.90;99.90;;;;;;3595017;39;20636;-65
2021/06/16 01:10:30;;;;;;;4.88;1.85;;;14.90;99.90;;;;;;3592370;39;20048;-65
2021/06/16 01:13:21;;;;;;;6.15;1.65;;;14.80;99.90;;;;;;3593582;39;20028;-65
2021/06/16 01:15:56;;;;;;;5.55;1.90;;;14.70;99.90;;;;;;3593151;39;20035;-64
2021/06/16 01:18:25;;;;;;;5.05;1.70;;;14.70;99.90;;;;;;3594168;39;20064;-65
2021/06/16 01:20:55;;;;;;;6.32;1.95;;;14.60;99.90;;;;;;3593552;39;20043;-64
2021/06/16 01:23:49;;;;;;;4.05;1.75;;;14.40;99.90;;;;;;3599180;39;20027;-65
2021/06/16 01:26:22;;;;;;;5.72;2.20;;;14.60;99.90;;;;;;3585003;39;20032;-65
2021/06/16 01:28:48;;;;;;;3.58;1.67;;;;;;;;;;3593076;39;20036;-65
2021/06/16 01:31:18;;;;;;;5.35;2.00;;;14.80;99.90;;;;;;3595450;39;20027;-65
2021/06/16 01:33:45;;;;;;;5.43;1.75;;;14.30;99.90;;;;;;3594034;39;20032;-65
2021/06/16 01:36:12;;;;;;;4.30;1.70;;;14.20;99.90;;;;;;3597535;39;20156;-65
2021/06/16 01:38:38;;;;;;;6.10;1.70;;;;;;;;;;3592918;39;20028;-65
2021/06/16 01:41:05;;;;;;;6.30;1.63;;;14.30;99.90;;;;;;3591787;39;20234;-64
2021/06/16 01:43:31;;;;;;;10.38;2.70;;;;;;;;;;3597388;39;20414;-64
2021/06/16 01:46:00;;;;;;;4.57;1.95;;;14.50;99.90;;;;;;3596709;39;20043;-65
2021/06/16 01:48:28;;;;;;;3.08;1.80;;;14.30;99.90;;;;;;3593576;39;20036;-65
2021/06/16 01:50:55;;;;;;;4.32;1.90;;;14.10;99.90;;;;;;3596815;39;20020;-65
2021/06/16 01:53:23;;;;;;;6.30;1.77;;;14.20;99.90;;;;;;3598657;39;20120;-64
2021/06/16 01:55:49;;;;;;;7.07;1.60;;;14.90;99.90;;;;;;3589115;39;20118;-64
2021/06/16 01:58:17;;;;;;;4.80;2.00;;;13.50;99.90;;;;;;3596469;39;20703;-64
2021/06/16 02:00:44;;;;;;;7.18;1.75;;;14.10;99.90;;;;;;3596864;39;20022;-65
2021/06/16 02:03:10;;;;;;;5.07;2.08;;;;;;;;;;3594282;39;20020;-64
2021/06/16 02:05:36;;;;;;;5.53;2.15;;;;;;;;;;3593008;39;20110;-65
2021/06/16 02:08:10;;;;;;;4.88;1.88;;;14.00;99.90;;;;;;3594214;39;20582;-65
2021/06/16 02:10:42;;;;;;;4.72;1.80;;;14.20;99.90;;;;;;3596609;39;20031;-64
2021/06/16 02:13:10;;;;;;;5.30;1.85;;;13.90;99.90;;;;;;3592755;39;20055;-65
2021/06/16 02:15:48;;;;;;;5.25;1.60;;;13.80;99.90;;;;;;3593737;39;20164;-65
2021/06/16 02:18:14;;;;;;;6.32;1.60;;;13.40;99.90;;;;;;3598248;39;20020;-65
2021/06/16 02:20:40;;;;;;;5.40;1.70;;;13.60;99.90;;;;;;3597605;39;20124;-65
2021/06/16 02:23:07;;;;;;;14.65;4.63;;;;;;;;;;3594500;39;20040;-65
2021/06/16 02:25:33;;;;;;;24.58;6.50;;;;;;;;;;3586056;39;20080;-66
2021/06/16 02:27:59;;;;;;;19.38;6.22;;;;;;;;;;3596911;39;20024;-65
2021/06/16 02:30:25;;;;;;;9.85;3.50;;;;;;;;;;3594184;39;20036;-65
2021/06/16 02:32:51;;;;;;;8.23;2.20;;;;;;;;;;3596114;39;20069;-65
2021/06/16 02:35:18;;;;;;;7.93;2.33;;;;;;;;;;3595504;39;20026;-65
2021/06/16 02:38:03;;;;;;;6.00;2.50;;;;;;;;;;3594908;39;20076;-64
2021/06/16 02:40:30;;;;;;;3.53;1.70;;;;;;;;;;3596667;39;20030;-65
2021/06/16 02:42:56;;;;;;;7.22;1.67;;;;;;;;;;3593361;39;20286;-65
2021/06/16 02:45:23;;;;;;;3.28;1.65;;;;;;;;;;3597260;39;20080;-64
2021/06/16 02:47:50;;;;;;;5.35;1.85;;;;;;;;;;3584423;39;20076;-64
2021/06/16 02:50:19;;;;;;;5.15;1.90;;;;;;;;;;3588555;39;20040;-67
2021/06/16 02:52:47;;;;;;;6.03;2.00;;;;;;;;;;3597693;39;20031;-66
2021/06/16 02:55:13;;;;;;;7.00;1.98;;;;;;;;;;3598040;39;20028;-66
2021/06/16 02:57:41;;;;;;;7.20;1.83;;;;;;;;;;3596335;39;20028;-67
2021/06/16 03:00:08;;;;;;;7.43;2.15;;;;;;;;;;3595367;39;20032;-66
2021/06/16 03:02:36;;;;;;;5.55;2.00;;;;;;;;;;3596865;39;20043;-66
2021/06/16 03:05:03;;;;;;;7.60;2.03;;;;;;;;;;3596666;39;20028;-67
2021/06/16 03:07:29;;;;;;;3.45;1.90;;;;;;;;;;3598778;39;20069;-66
2021/06/16 03:09:58;;;;;;;4.07;1.80;;;;;;;;;;3587585;39;20520;-66
2021/06/16 03:12:24;;;;;;;5.13;1.80;;;;;;;;;;3586186;40;20057;-66
2021/06/16 03:14:51;;;;;;;4.75;1.77;;;;;;;;;;3598385;39;20028;-65
2021/06/16 03:17:18;;;;;;;9.38;2.05;;;;;;;;;;3596144;39;20078;-66
2021/06/16 03:19:45;;;;;;;2.80;1.60;;;;;;;;;;3592961;39;20099;-66
2021/06/16 03:22:12;;;;;;;4.95;1.52;;;;;;;;;;3596638;39;20035;-66
2021/06/16 03:24:39;;;;;;;6.38;1.92;;;;;;;;;;3596614;39;20031;-64
2021/06/16 03:27:05;;;;;;;5.15;1.83;;;;;;;;;;3599738;39;20048;-67
2021/06/16 03:29:32;;;;;;;8.68;1.48;;;;;;;;;;3596626;39;20054;-66
2021/06/16 03:31:59;;;;;;;3.55;1.80;;;;;;;;;;3592722;39;20032;-67
2021/06/16 03:34:25;;;;;;;5.97;1.55;;;;;;;;;;3591304;39;20019;-65
2021/06/16 03:36:52;;;;;;;2.90;1.50;;;;;;;;;;3596669;39;20708;-66
2021/06/16 03:39:18;;;;;;;5.80;2.78;;;;;;;;;;3596950;39;20069;-66
2021/06/16 03:41:45;;;;;;;3.60;1.35;;;;;;;;;;3597261;39;20087;-64
2021/06/16 03:44:11;;;;;;;2.90;1.55;;;;;;;;;;3597647;39;20067;-66
2021/06/16 03:46:38;;;;;;;4.07;1.88;;;;;;;;;;3598373;39;20091;-67
2021/06/16 03:49:05;;;;;;;6.43;2.33;;;;;;;;;;3597456;39;20027;-66
2021/06/16 03:51:32;;;;;;;34.33;14.52;;;;;;;;;;3598153;39;20032;-63
2021/06/16 03:53:58;;;;;;;6.82;2.95;;;;;;;;;;3596621;39;20039;-64
2021/06/16 03:56:24;;;;;;;3.67;1.95;;;;;;;;;;3594175;39;20071;-64
2021/06/16 03:58:54;;;;;;;4.43;1.60;;;;;;;;;;3590053;39;20864;-64
2021/06/16 04:01:20;;;;;;;3.85;1.45;;;;;;;;;;3594475;39;20393;-66
2021/06/16 04:03:49;;;;;;;3.92;2.13;;;;;;;;;;3588384;40;20140;-66
2021/06/16 04:06:16;;;;;;;8.13;2.08;;;;;;;;;;3599066;39;20081;-64
2021/06/16 04:08:46;;;;;;;4.47;1.50;;;;;;;;;;3588147;39;20044;-61
2021/06/16 04:11:15;;;;;;;5.65;1.67;;;;;;;;;;3594848;39;20072;-64
2021/06/16 04:13:42;;;;;;;2.80;1.80;;;;;;;;;;3598156;39;20034;-64
2021/06/16 04:16:08;;;;;;;2.88;1.55;;;;;;;;;;3597684;39;20497;-63
2021/06/16 04:18:35;;;;;;;3.15;1.50;;;;;;;;;;3597296;39;20039;-63
2021/06/16 04:21:01;;;;;;;2.17;1.58;;;;;;;;;;3598947;39;20022;-63
2021/06/16 04:23:29;;;;;;;3.58;1.95;;;;;;;;;;3600662;39;20905;-63
2021/06/16 04:25:55;;;;;;;6.55;1.77;;;;;;;;;;3598528;39;20374;-63
2021/06/16 04:28:22;;;;;;;6.68;1.67;;;;;;;;;;3594210;39;20117;-63
2021/06/16 04:30:48;;;;;;;3.65;1.70;;;;;;;;;;3587591;39;20108;-62
2021/06/16 04:33:14;;;;;;;11.90;4.68;;;;;;;;;;3598526;39;20108;-64
2021/06/16 04:35:40;;;;;;;8.57;2.60;;;;;;;;;;3599379;39;20049;-63
2021/06/16 04:38:06;;;;;;;4.60;2.10;;;;;;;;;;3595055;39;20775;-63
2021/06/16 04:40:32;;;;;;;4.50;2.40;;;;;;;;;;3588033;39;20031;-63
2021/06/16 04:42:58;;;;;;;3.97;1.65;;;;;;;;;;3597639;39;20035;-62
2021/06/16 04:45:24;;;;;;;8.18;2.47;;;;;;;;;;3595344;39;20036;-62
2021/06/16 04:47:50;;;;;;;4.50;1.63;;;;;;;;;;3593798;39;20675;-62
2021/06/16 04:50:17;;;;;;;4.75;1.60;;;;;;;;;;3597947;39;20035;-62
2021/06/16 04:52:43;;;;;;;21.02;6.55;;;;;;;;;;3594419;39;20128;-62
2021/06/16 04:55:10;;;;;;;12.02;5.63;;;;;;;;;;3588477;39;20032;-62
2021/06/16 04:57:36;;;;;;;4.75;2.50;;;;;;;;;;3595896;39;20068;-62
2021/06/16 05:00:04;;;;;;;4.10;1.90;;;;;;;;;;3598901;39;20032;-62
2021/06/16 05:02:30;;;;;;;6.68;2.10;;;;;;;;;;3595376;39;20072;-63
2021/06/16 05:04:56;;;;;;;4.63;1.70;;;;;;;;;;3597276;39;20048;-62
2021/06/16 05:07:22;;;;;;;4.95;1.70;;;;;;;;;;3592584;39;20079;-65
2021/06/16 05:09:48;;;;;;;3.60;1.45;;;;;;;;;;3597040;39;20897;-66
2021/06/16 05:12:14;;;;;;;4.13;1.55;;;;;;;;;;3598566;39;20015;-65
2021/06/16 05:14:40;;;;;;;10.32;1.63;;;;;;;;;;3597899;39;20035;-66
2021/06/16 05:17:06;;;;;;;6.03;1.50;;;;;;;;;;3594036;39;20040;-66
2021/06/16 05:19:33;;;;;;;10.02;1.92;;;;;;;;;;3597342;39;20509;-66
2021/06/16 05:22:26;;;;;;;4.53;1.75;;;;;;;;;;3596292;39;20150;-66
2021/06/16 05:24:53;;;;;;;7.30;1.77;;;;;;;;;;3594257;39;20032;-63
2021/06/16 05:27:19;;;;;;;3.45;1.50;;;;;;;;;;3595221;39;20020;-63
2021/06/16 05:29:45;;;;;;;11.43;2.90;;;;;;;;;;3597340;39;20308;-63
2021/06/16 05:32:12;;;;;;;4.75;1.90;;;;;;;;;;3599892;39;20044;-63
2021/06/16 05:34:38;;;;;;;13.30;4.82;;;;;;;;;;3598559;39;20106;-63
2021/06/16 05:37:07;;;;;;;7.28;2.55;;;;;;;;;;3597760;39;20028;-63
2021/06/16 05:39:33;;;;;;;8.88;1.70;;;;;;;;;;3598121;39;20044;-63
2021/06/16 05:41:59;;;;;;;16.08;1.77;;;;;;;;;;3598829;39;20024;-64
2021/06/16 05:44:25;;;;;;;4.93;1.60;;;;;;;;;;3587642;39;20039;-63
2021/06/16 05:46:51;;;;;;;6.72;1.42;;;;;;;;;;3597447;39;20151;-63
2021/06/16 05:49:18;;;;;;;12.88;2.83;;;;;;;;;;3596711;39;20036;-63
2021/06/16 05:51:44;;;;;;;7.93;3.35;;;;;;;;;;3584678;39;20028;-63
2021/06/16 05:54:10;;;;;;;14.27;3.92;;;;;;;;;;3598361;39;20028;-62
2021/06/16 05:56:39;;;;;;;12.23;2.70;;;;;;;;;;3596046;39;20051;-62
2021/06/16 05:59:06;;;;;;;8.88;4.05;;;;;;;;;;3597962;39;20585;-63
2021/06/16 06:01:32;;;;;;;4.13;1.80;;;;;;;;;;3596830;39;20129;-63
2021/06/16 06:03:59;;;;;;;6.32;1.20;;;;;;;;;;3595665;39;20687;-62
2021/06/16 06:06:26;;;;;;;4.88;1.30;;;;;;;;;;3597818;39;20116;-63
2021/06/16 06:08:52;;;;;;;6.20;1.80;;;;;;;;;;3596383;39;20536;-63
2021/06/16 06:11:18;;;;;;;3.88;1.13;;;;;;;;;;3598139;39;20386;-63
2021/06/16 06:13:44;;;;;;;8.30;1.33;;;;;;;;;;3596034;39;20063;-63
2021/06/16 06:16:11;;;;;;;5.13;1.20;;;;;;;;;;3596570;39;20040;-63
2021/06/16 06:18:37;;;;;;;2.28;1.15;;;;;;;;;;3595520;39;20027;-63
2021/06/16 06:21:03;;;;;;;11.30;1.10;;;;;;;;;;3586817;39;20032;-62
2021/06/16 06:23:29;;;;;;;10.82;1.50;;;;;;;;;;3586986;39;20092;-63
2021/06/16 06:25:55;;;;;;;6.57;2.63;;;;;;;;;;3599005;39;20035;-62
2021/06/16 06:28:22;;;;;;;19.88;7.70;;;;;;;;;;3594725;39;20177;-62
2021/06/16 06:30:48;;;;;;;9.32;2.97;;;;;;;;;;3597153;39;20051;-63
2021/06/16 06:33:14;;;;;;;4.07;1.50;;;;;;;;;;3599036;39;20513;-63
2021/06/16 06:35:40;;;;;;;6.13;1.48;;;;;;;;;;3597164;39;20038;-63
2021/06/16 06:38:06;;;;;;;21.13;8.60;;;;;;;;;;3597316;39;20107;-63
2021/06/16 06:40:32;;;;;;;15.07;6.00;;;;;;;;;;3598652;39;20055;-63
2021/06/16 06:42:59;;;;;;;15.38;3.63;;;;;;;;;;3587792;39;20423;-63
2021/06/16 06:45:25;;;;;;;12.20;1.50;;;;;;;;;;3599820;39;20035;-63
2021/06/16 06:47:51;;;;;;;4.90;1.35;;;;;;;;;;3598286;39;20501;-63
2021/06/16 06:50:17;;;;;;;7.75;1.48;;;;;;;;;;3597715;39;20032;-62
2021/06/16 06:52:47;;;;;;;11.38;2.38;;;;;;;;;;3594260;39;20035;-63
2021/06/16 06:55:13;;;;;;;7.35;1.33;;;;;;;;;;3595590;39;20274;-63
2021/06/16 06:57:39;;;;;;;2.92;1.10;;;;;;;;;;3598465;39;20026;-63
2021/06/16 07:00:06;;;;;;;4.90;1.40;;;;;;;;;;3588309;39;20082;-62
2021/06/16 07:02:32;;;;;;;7.30;1.90;;;;;;;;;;3598933;39;20027;-63
2021/06/16 07:04:58;;;;;;;6.43;1.75;;;;;;;;;;3598406;39;20068;-62
2021/06/16 07:07:25;;;;;;;12.98;4.63;;;;;;;;;;3596758;39;20023;-62
2021/06/16 07:09:51;;;;;;;10.10;2.15;;;;;;;;;;3598788;39;20618;-62
2021/06/16 07:12:17;;;;;;;5.78;1.88;;;;;;;;;;3596442;39;20046;-62
2021/06/16 07:14:44;;;;;;;10.15;3.20;;;;;;;;;;3593064;39;20210;-62
2021/06/16 07:17:11;;;;;;;31.95;6.65;;;;;;;;;;3583963;39;20341;-62
2021/06/16 07:19:37;;;;;;;20.02;5.60;;;;;;;;;;3596040;39;20032;-63
2021/06/16 07:22:03;;;;;;;24.85;5.32;;;;;;;;;;3597556;39;20043;-62
2021/06/16 07:24:30;;;;;;;32.42;7.97;;;;;;;;;;3593501;39;20400;-61
2021/06/16 07:26:56;;;;;;;38.47;12.10;;;;;;;;;;3594882;39;20032;-61
2021/06/16 07:29:22;;;;;;;13.10;4.00;;;;;;;;;;3598959;39;20797;-62
2021/06/16 07:31:49;;;;;;;10.35;2.78;;;;;;;;;;3595834;39;20028;-62
2021/06/16 07:34:15;;;;;;;3.75;1.10;;;;;;;;;;3592905;39;20051;-62
2021/06/16 07:36:41;;;;;;;10.82;2.42;;;;;;;;;;3585708;39;20705;-62
2021/06/16 07:39:07;;;;;;;65.85;24.75;;;;;;;;;;3596245;39;20059;-62
2021/06/16 07:41:33;;;;;;;16.45;6.45;;;;;;;;;;3597644;39;20028;-62
2021/06/16 07:43:59;;;;;;;18.25;5.03;;;;;;;;;;3597455;39;20105;-62
2021/06/16 07:46:26;;;;;;;19.08;5.65;;;;;;;;;;3597433;39;20148;-62
2021/06/16 07:48:52;;;;;;;28.65;6.35;;;;;;;;;;3596014;39;20108;-61
2021/06/16 07:51:18;;;;;;;27.90;5.18;;;;;;;;;;3594846;39;20047;-62
2021/06/16 07:53:44;;;;;;;6.63;2.83;;;;;;;;;;3597507;39;20031;-62
2021/06/16 07:56:10;;;;;;;13.52;3.55;;;;;;;;;;3598013;39;20024;-61
2021/06/16 07:58:37;;;;;;;28.23;6.35;;;;;;;;;;3581609;40;20044;-60
2021/06/16 08:01:03;;;;;;;11.75;3.15;;;;;;;;;;3595366;39;20166;-61
2021/06/16 08:03:29;;;;;;;28.20;6.25;;;;;;;;;;3594250;39;20031;-59
2021/06/16 08:05:55;;;;;;;20.15;4.32;;;;;;;;;;3592134;39;20027;-60
2021/06/16 08:08:23;;;;;;;17.23;5.03;;;;;;;;;;3596143;39;20055;-65
2021/06/16 08:10:49;;;;;;;7.85;2.90;;;;;;;;;;3597565;39;20024;-64
2021/06/16 08:13:15;;;;;;;8.43;3.15;;;;;;;;;;3593576;39;20031;-64
2021/06/16 08:15:41;;;;;;;15.68;4.60;;;;;;;;;;3596592;39;20039;-65
2021/06/16 08:18:08;;;;;;;18.02;5.32;;;;;;;;;;3581068;39;20036;-64
2021/06/16 08:20:35;;;;;;;24.27;6.47;;;;;;;;;;3586516;39;20377;-64
2021/06/16 08:23:01;;;;;;;18.25;5.78;;;;;;;;;;3598389;39;20120;-64
2021/06/16 08:25:27;;;;;;;27.25;6.28;;;;;;;;;;3596237;39;20479;-64
2021/06/16 08:27:53;;;;;;;79.63;10.00;;;;;;;;;;3596611;39;20028;-65
2021/06/16 08:30:19;;;;;;;100.53;10.65;;;;;;;;;;3598472;39;20635;-64
2021/06/16 08:32:45;;;;;;;110.57;11.73;;;;;;;;;;3594545;39;20759;-64
2021/06/16 08:35:13;;;;;;;102.05;11.50;;;;;;;;;;3595386;39;20064;-65
2021/06/16 08:37:39;;;;;;;78.05;9.27;;;;;;;;;;3587117;39;20044;-66
2021/06/16 08:40:06;;;;;;;84.82;10.68;;;;;;;;;;3594994;39;20066;-64
2021/06/16 08:42:32;;;;;;;76.72;10.45;;;;;;;;;;3594979;39;20039;-64
2021/06/16 08:44:59;;;;;;;68.50;10.35;;;;;;;;;;3588150;39;20020;-65
2021/06/16 08:47:26;;;;;;;61.10;8.43;;;;;;;;;;3592733;39;20405;-65
2021/06/16 08:49:53;;;;;;;68.60;10.23;;;;;;;;;;3592353;39;20036;-66
2021/06/16 08:52:20;;;;;;;63.63;8.55;;;;;;;;;;3594744;39;20069;-66
2021/06/16 08:54:46;;;;;;;49.40;7.63;;;;;;;;;;3597140;39;20024;-66
2021/06/16 08:57:13;;;;;;;35.45;8.43;;;;;;;;;;3595635;39;20205;-66
2021/06/16 08:59:39;;;;;;;40.97;7.63;;;;;;;;;;3595259;39;20051;-65
2021/06/16 09:02:05;;;;;;;22.15;5.82;;;;;;;;;;3591023;39;20035;-64
2021/06/16 09:04:44;;;;;;;18.60;5.35;;;;;;;;;;3595975;39;20576;-64
2021/06/16 09:07:16;;;;;;;30.45;6.63;;;;;;;;;;3586233;39;20739;-66
2021/06/16 09:09:42;;;;;;;29.02;7.18;;;;;;;;;;3598983;39;20023;-65
2021/06/16 09:12:10;;;;;;;25.65;6.25;;;;;;;;;;3596524;39;20034;-65
2021/06/16 09:14:36;;;;;;;10.45;3.20;;;;;;;;;;3596499;39;20024;-65
2021/06/16 09:17:03;;;;;;;12.18;1.50;;;;;;;;;;3598232;39;20016;-65
2021/06/16 09:19:36;;;;;;;11.80;3.20;;;;;;;;;;3598978;39;20805;-65
2021/06/16 09:22:06;;;;;;;5.93;1.52;;;;;;;;;;3597757;39;20057;-65
2021/06/16 09:24:44;;;;;;;7.72;2.38;;;;;;;;;;3596951;39;20027;-65
2021/06/16 09:27:10;;;;;;;16.80;4.50;;;;;;;;;;3598689;39;20429;-64
2021/06/16 09:29:37;;;;;;;8.05;1.30;;;;;;;;;;3597204;39;20499;-64
2021/06/16 09:32:04;;;;;;;7.00;1.52;;;;;;;;;;3599798;39;20047;-64
2021/06/16 09:34:30;;;;;;;15.10;4.43;;;;;;;;;;3596362;39;20020;-64
2021/06/16 09:36:58;;;;;;;7.30;2.42;;;;;;;;;;3593973;39;20441;-64
2021/06/16 09:39:26;;;;;;;3.92;1.92;;;;;;;;;;3594295;39;20051;-64
2021/06/16 09:41:57;;;;;;;15.25;5.80;;;;;;;;;;3596013;39;20039;-65
2021/06/16 09:44:44;;;;;;;7.95;2.38;;;;;;;;;;3597515;39;20384;-64
2021/06/16 09:47:12;;;;;;;6.30;1.70;;;;;;;;;;3595240;39;20047;-64
2021/06/16 09:49:47;;;;;;;5.07;1.58;;;;;;;;;;3598381;39;20125;-64
2021/06/16 09:52:32;;;;;;;4.88;1.50;;;;;;;;;;3593932;39;20050;-64
2021/06/16 09:54:59;;;;;;;10.77;1.80;;;;;;;;;;3596663;39;20070;-64
2021/06/16 09:57:25;;;;;;;8.20;1.73;;;;;;;;;;3593733;39;20527;-64
2021/06/16 09:59:57;;;;;;;5.85;1.60;;;;;;;;;;3596490;39;20307;-64
2021/06/16 10:02:27;;;;;;;8.75;1.92;;;27.10;65.00;;;;;;3595043;39;20040;-65
2021/06/16 10:05:01;;;;;;;8.00;1.95;;;;;;;;;;3598089;39;20068;-65
2021/06/16 10:07:28;;;;;;;5.10;1.98;;;;;;;;;;3596127;39;20032;-65
2021/06/16 10:10:01;;;;;;;7.38;2.40;;;;;;;;;;3597802;39;20071;-65
2021/06/16 10:12:30;;;;;;;9.43;1.60;;;;;;;;;;3593074;39;20028;-64
2021/06/16 10:14:57;;;;;;;5.95;1.55;;;;;;;;;;3591971;39;20116;-64
2021/06/16 10:17:23;;;;;;;7.47;1.70;;;;;;;;;;3585574;39;20031;-64
2021/06/16 10:19:50;;;;;;;6.45;1.52;;;;;;;;;;3596666;39;20031;-64
2021/06/16 10:22:16;;;;;;;10.25;1.60;;;;;;;;;;3598787;39;20021;-64
2021/06/16 10:24:42;;;;;;;10.05;1.65;;;;;;;;;;3596068;39;20064;-65
2021/06/16 10:27:19;;;;;;;10.57;1.83;;;;;;;;;;3599194;39;20631;-65
2021/06/16 10:29:48;;;;;;;2.58;1.52;;;;;;;;;;3593835;39;20121;-65
2021/06/16 10:32:14;;;;;;;7.28;1.63;;;;;;;;;;3597424;39;20020;-65
2021/06/16 10:34:52;;;;;;;6.45;1.80;;;;;;;;;;3598229;39;20040;-65
2021/06/16 10:37:32;;;;;;;11.18;2.08;;;;;;;;;;3595262;39;20027;-65
2021/06/16 10:40:11;;;;;;;7.30;1.70;;;;;;;;;;3585535;39;20144;-64
2021/06/16 10:42:56;;;;;;;6.70;2.22;;;;;;;;;;3595149;39;20036;-64
2021/06/16 10:45:22;;;;;;;5.43;1.73;;;;;;;;;;3585966;39;20755;-65
2021/06/16 10:47:58;;;;;;;9.30;1.58;;;;;;;;;;3596099;39;20043;-65
2021/06/16 10:50:42;;;;;;;9.65;1.98;;;;;;;;;;3593822;39;20409;-65
2021/06/16 10:53:08;;;;;;;6.15;1.63;;;;;;;;;;3590979;39;20065;-64
2021/06/16 10:55:56;;;;;;;9.45;1.50;;;;;;;;;;3594503;39;20027;-65
2021/06/16 10:58:27;;;;;;;5.32;1.90;;;;;;;;;;3594300;39;20028;-64
2021/06/16 11:01:08;;;;;;;3.83;1.40;;;;;;;;;;3588877;39;20386;-65
2021/06/16 11:03:55;;;;;;;4.72;1.92;;;;;;;;;;3595637;39;20035;-65
2021/06/16 11:06:36;;;;;;;10.18;1.60;;;;;;;;;;3597766;39;20093;-65
2021/06/16 11:09:02;;;;;;;4.80;1.50;;;;;;;;;;3587435;39;20100;-66
2021/06/16 11:11:47;;;;;;;4.22;1.67;;;;;;;;;;3588410;39;20009;-66
2021/06/16 11:14:32;;;;;;;8.05;1.95;;;;;;;;;;3594458;39;20035;-66
2021/06/16 11:16:58;;;;;;;11.57;4.05;;;;;;;;;;3597195;39;20032;-66
2021/06/16 11:19:28;;;;;;;6.63;1.90;;;;;;;;;;3596440;39;20052;-65
2021/06/16 11:21:57;;;;;;;8.02;3.20;;;;;;;;;;3598161;39;20138;-66
2021/06/16 11:24:43;;;;;;;6.97;3.60;;;;;;;;;;3584958;39;20024;-66
2021/06/16 11:27:09;;;;;;;6.15;2.10;;;;;;;;;;3595662;39;20039;-65
2021/06/16 11:29:54;;;;;;;15.75;7.60;;;;;;;;;;3596130;39;20027;-66
2021/06/16 11:32:20;;;;;;;5.15;1.60;;;;;;;;;;3596915;39;20048;-66
2021/06/16 11:34:50;;;;;;;6.22;1.63;;;;;;;;;;3592337;39;20032;-66
2021/06/16 11:37:36;;;;;;;3.95;1.52;;;;;;;;;;3595184;39;20039;-66
2021/06/16 11:40:06;;;;;;;5.80;1.70;;;;;;;;;;3590806;39;20043;-66
2021/06/16 11:42:32;;;;;;;9.75;1.10;;;;;;;;;;3597377;39;20089;-65
2021/06/16 11:44:58;;;;;;;5.85;1.38;;;;;;;;;;3587939;39;20040;-65
2021/06/16 11:47:25;;;;;;;4.68;1.83;;;;;;;;;;3596704;39;20384;-66
2021/06/16 11:50:00;;;;;;;2.08;1.10;;;;;;;;;;3597121;39;20080;-66
2021/06/16 11:52:26;;;;;;;2.97;1.35;;;;;;;;;;3595692;39;20100;-66
2021/06/16 11:54:52;;;;;;;5.38;1.95;;;;;;;;;;3595158;39;20113;-65
2021/06/16 11:57:19;;;;;;;5.18;1.20;;;;;;;;;;3594653;39;20043;-65
2021/06/16 11:59:52;;;;;;;4.78;1.48;;;;;;;;;;3595510;39;20415;-66
2021/06/16 12:02:23;;;;;;;6.78;1.48;;;;;;;;;;3586906;39;20087;-66
2021/06/16 12:04:49;;;;;;;4.00;1.20;;;;;;;;;;3594094;39;20039;-66
2021/06/16 12:07:22;;;;;;;3.60;1.52;;;;;;;;;;3593920;39;20038;-66
2021/06/16 12:09:49;;;;;;;10.90;1.30;;;;;;;;;;3593590;39;20072;-66
2021/06/16 12:12:15;;;;;;;4.05;1.30;;;;;;;;;;3593061;39;20032;-66
2021/06/16 12:14:41;;;;;;;10.88;1.42;;;;;;;;;;3596597;39;20048;-66
2021/06/16 12:17:07;;;;;;;3.30;1.30;;;;;;;;;;3594650;39;20051;-65
2021/06/16 12:19:34;;;;;;;2.35;1.40;;;;;;;;;;3594833;39;20038;-66
2021/06/16 12:22:03;;;;;;;4.72;1.30;;;;;;;;;;3596076;39;20400;-66
2021/06/16 12:24:29;;;;;;;4.10;1.45;;;;;;;;;;3598289;39;20024;-66
2021/06/16 12:27:04;;;;;;;2.45;1.55;;;;;;;;;;3597207;39;20021;-66
2021/06/16 12:29:31;;;;;;;4.57;1.58;;;;;;;;;;3596905;39;20384;-66
2021/06/16 12:32:00;;;;;;;4.53;1.45;;;;;;;;;;3596439;39;20013;-66
2021/06/16 12:37:15;;;;;;;3.42;1.13;;;;;;;;;;3592769;39;20035;-66
2021/06/16 12:39:52;;;;;;;4.32;1.50;;;;;;;;;;3600029;39;20028;-66
2021/06/16 12:42:18;;;;;;;3.47;1.45;;;;;;;;;;3600976;39;20039;-67
2021/06/16 12:44:44;;;;;;;3.15;1.20;;;;;;;;;;3597192;39;20403;-66
2021/06/16 12:47:12;;;;;;;6.10;1.80;;;;;;;;;;3599624;39;20094;-67
2021/06/16 12:49:38;;;;;;;8.60;1.58;;;;;;;;;;3597345;39;20072;-66
2021/06/16 12:52:09;;;;;;;3.80;1.45;;;;;;;;;;3597574;39;20020;-67
2021/06/16 12:54:45;;;;;;;12.23;3.80;;;;;;;;;;3591219;39;20324;-67
2021/06/16 12:57:13;;;;;;;5.15;2.15;;;;;;;;;;3600598;39;20028;-66
2021/06/16 12:59:47;;;;;;;12.57;6.30;;;;;;;;;;3598732;39;20135;-67
2021/06/16 13:02:14;;;;;;;8.07;1.63;;;;;;;;;;3600168;39;20042;-67
2021/06/16 13:04:43;;;;;;;5.68;2.10;;;;;;;;;;3590958;39;20031;-66
2021/06/16 13:07:09;;;;;;;4.38;2.30;;;;;;;;;;3589103;39;20046;-66
2021/06/16 13:09:35;;;;;;;1.92;1.25;;;;;;;;;;3599435;39;20012;-67
2021/06/16 13:12:05;;;;;;;27.42;19.77;;;;;;;;;;3598520;39;20031;-67
2021/06/16 13:14:35;;;;;;;7.53;2.15;;;;;;;;;;3597200;39;20028;-66
2021/06/16 13:17:05;;;;;;;3.83;1.50;;;;;;;;;;3596919;39;20035;-67
2021/06/16 13:19:32;;;;;;;4.93;1.73;;;;;;;;;;3601366;39;20145;-66
2021/06/16 13:21:58;;;;;;;2.78;1.58;;;;;;;;;;3594927;39;20034;-67
2021/06/16 13:24:24;;;;;;;3.88;1.45;;;;;;;;;;3597299;39;20328;-66
2021/06/16 13:27:03;;;;;;;3.88;1.50;;;;;;;;;;3601154;39;20028;-66
2021/06/16 13:29:31;;;;;;;5.32;1.58;;;38.30;42.80;;;;;;3597593;39;20076;-66
2021/06/16 13:31:57;;;;;;;2.63;1.35;;;37.30;42.60;;;;;;3590669;39;20031;-66
2021/06/16 13:34:24;;;;;;;4.30;1.80;;;;;;;;;;3600220;39;20032;-66
2021/06/16 13:36:50;;;;;;;2.78;1.20;;;;;;;;;;3587852;39;20297;-66
2021/06/16 13:39:16;;;;;;;6.53;1.58;;;;;;;;;;3597786;39;20084;-66
2021/06/16 13:42:00;;;;;;;1.98;1.55;;;;;;;;;;3599850;39;20020;-66
2021/06/16 13:44:26;;;;;;;3.03;1.40;;;;;;;;;;3595966;39;20444;-66
2021/06/16 13:46:53;;;;;;;3.83;1.73;;;;;;;;;;3596807;39;20052;-66
2021/06/16 13:49:19;;;;;;;5.28;1.80;;;;;;;;;;3594808;39;20032;-66
2021/06/16 13:51:45;;;;;;;3.45;1.42;;;;;;;;;;3596537;39;20028;-66
2021/06/16 13:54:14;;;;;;;3.50;1.50;;;;;;;;;;3594805;39;20443;-66
2021/06/16 13:56:43;;;;;;;6.50;1.90;;;35.30;45.20;;;;;;3598355;39;20066;-66
2021/06/16 13:59:10;;;;;;;7.63;2.00;;;;;;;;;;3594465;39;20044;-66
2021/06/16 14:01:36;;;;;;;10.00;4.10;;;;;;;;;;3597280;39;20026;-66
2021/06/16 14:04:02;;;;;;;5.00;2.10;;;;;;;;;;3596549;39;20024;-66
2021/06/16 14:06:28;;;;;;;3.90;2.20;;;;;;;;;;3593933;39;20155;-66
2021/06/16 14:08:54;;;;;;;3.13;1.80;;;36.20;62.00;;;;;;3600183;39;20389;-66
2021/06/16 14:11:20;;;;;;;10.05;5.40;;;;;;;;;;3597017;39;20032;-66
2021/06/16 14:13:46;;;;;;;6.07;1.88;;;;;;;;;;3597187;39;20026;-66
2021/06/16 14:16:13;;;;;;;4.28;2.45;;;;;;;;;;3599390;39;20032;-66
2021/06/16 14:18:39;;;;;;;6.57;1.50;;;39.50;53.60;;;;;;3596839;39;20035;-67
2021/06/16 14:21:05;;;;;;;2.92;1.38;;;;;;;;;;3595884;39;20030;-66
2021/06/16 14:23:31;;;;;;;2.72;1.48;;;;;;;;;;3597091;39;20021;-66
2021/06/16 14:25:58;;;;;;;4.60;1.85;;;;;;;;;;3597272;39;20027;-66
2021/06/16 14:28:25;;;;;;;3.50;1.90;;;;;;;;;;3596509;39;20027;-67
2021/06/16 14:30:51;;;;;;;2.90;1.70;;;;;;;;;;3596607;39;20692;-66
2021/06/16 14:33:18;;;;;;;5.65;1.65;;;;;;;;;;3596626;39;20651;-66